Aeroporto :
LOGIN :

Iscrizione | Disclaimer

   EN    FR    IT 

 










Sommario :    VFR   VFR Marginale   IFR   IFR Intensivo   IFR Molto Intensivo
Visibilità : 
Base nubi : 
>= 8 km
>= 3000ft
5 / 8 km
1000 / 3000 ft
1500m / 5 km
500 / 1000 ft
800 / 1500m
200 / 500 ft
< 800m
< 200 ft
Simboli :   Temporali  Nebbia  Neve Forte  Precipitazioni Forti  Vento > 20 kt
SIGMETs :   Varie  Temporali  Ghiacco  Turbolenza  Onda orograficha  Ceneri Vulcaniche







- Altitudine del aeroporto : 147 ft
- Codice IATA : DUS


EDDL - Düsseldorf Int.

ULTIMO METAR :
  • 271350Z 26009KT 220V320 CAVOK 20/08 Q1009 NOSIG

METARs OBSOLETI :
  • 271320Z 27010KT 220V300 CAVOK 20/07 Q1009 NOSIG
  • 271250Z 26008KT 190V330 9999 FEW046 20/08 Q1009 NOSIG
  • 271220Z 26011KT 230V300 9999 FEW044 19/08 Q1009 NOSIG
  • 271150Z 27007KT 220V320 9999 FEW042 18/09 Q1010 NOSIG
  • 271120Z 24010KT 210V280 9999 SCT042 18/09 Q1010 NOSIG

TAF TAF EDDL
Valido dal 27 a 12 ore il 28 a 18 ore UTC


271100Z 2712/2818 26010KT 9999 SCT035
BECMG 2718/2721 VRB03KT
BECMG 2802/2805 26005KT
TEMPO 2810/2818 SHRA BKN020TCU
PROB30
TEMPO 2811/2818 33012KT TSRA BKN015CB
Nessun NOTAM noto per questo aeroporto.



MetMap, La meteo Aeronautica in un colpo d'occhio ! - Copyright ORBIFLY Dicembre 2007 - Disclaimer

ORBIFLY MET'MAP TEAM :

Programmazione e sviluppo : Alexandra Zaïnal
Concezione e sviluppo : Baudouin d'Aumeries
Co-Programmazione e sviluppo : Marc-Olivier Méhu
Supporto tecnico e logistico : Manuel Goepfert
Aiuto per la traduzione : Arnaldo La Scala

Contatto : metmap@orbifly.com




FONTI E CREDITI :

   NOAA